Terminal Aerodrome Forecast
Issued by NWS Upton, NY

Home | Current Version | Previous Version | Text Only | Print | Product List | Glossary On
Versions: 1 2 3 4 5 6 7 8 9 10 11 12 13 14 15 16 17 18 19 20 21 22 23 24 25 26 27 28 29 30 31 32 33 34 35
475
FTUS41 KOKX 231732
TAFISP
TAF
KISP 231732Z 2318/2418 18018G28KT 4SM SHRA BR SCT007 BKN015
      WS020/21050KT
     FM232100 22014KT P6SM SCT015 BKN035
     FM240000 27012G22KT P6SM SCT040
     FM241500 29012G24KT P6SM SCT040=

USA.gov is the U.S. government's official web portal to all federal, state and local government web resources and services.